Aérodrome :
LOGIN :

S'inscrire | Disclaimer

   EN    FR    IT 

 










Légende :    VFR   VFR Marginal   IFR   IFR Intensif   IFR Très Intensif
Visi : 
Plafond : 
>= 8 km
>= 3000ft
5 à 8 km
1000 à 3000 ft
1500m à 5 km
500 à 1000 ft
800 à 1500m
200 à 500 ft
< 800m
< 200 ft
Symboles :   Orages  Brouillard  Fortes neiges  Fortes précipitations  Vent > 20 kt
SIGMETs :   Divers  Orages  Givrage  Turbulence  Onde Orograph.  Cendres Volcan.







- Altitude de l'aérodrome : 665 ft
- Code IATA : NOC


EIKN - Connaught / Knock- Ireland West

METARs EXPIRÉS :
  • 141900Z 17016KT 6000 -RA OVC003 12/12 Q1005 NOSIG
  • 141830Z 18016G28KT 150V220 9000 -RA BKN007 OVC013 12/12 Q1005 NOSIG

TAF TAF EIKN
Valide du 14 à 18h jusqu'au 15 à 18h UTC


141700Z 1418/1518 17017KT 9999 SCT007 BKN010
TEMPO 1418/1510 17020G30KT 4000 -RADZ BKN003
PROB30
TEMPO 1421/1509 1200 BKN002
BECMG 1510/1512 20014KT SCT012 BKN020
TEMPO 1510/1514 21017G28KT 4000 RA BKN008
Pas de NOTAMs connus pour ce terrain.



MET'MAP, la Météo Aéronautique d'un coup d'oeil ! - Copyright ORBIFLY Décembre 2007 - Disclaimer

ORBIFLY MET'MAP TEAM :

Programmation & Développement : Alexandra Zaïnal
Conception & Développement : Baudouin d'Aumeries
Co-Programmation & Développement : Marc-Olivier Méhu
Soutien technique & logistique : Manuel Goepfert

Contact : metmap@orbifly.com




SOURCES & CREDITS :

   NOAA